Time;durP1;ratioP1;P1;durP2;ratioP2;P2;SDS_P1;SDS_P2;PMS_P1;PMS_P2;Temp;Humidity;BMP_temperature;BMP_pressure;BME280_temperature;BME280_humidity;BME280_pressure;Samples;Min_cycle;Max_cycle;Signal;HPM_P1;HPM_P2
2022/04/10 00:01:52;;;;;;;9.27;1.80;;;;;;;4.97;65.61;101928.53;5006908;28;20500;-63
2022/04/10 00:04:18;;;;;;;9.15;1.85;;;;;;;4.96;65.53;101927.66;5005624;28;20468;-62
2022/04/10 00:06:43;;;;;;;10.50;2.20;;;;;;;4.96;65.45;101932.88;5006077;28;20072;-62
2022/04/10 00:09:08;;;;;;;6.47;1.35;;;;;;;4.94;65.41;101932.00;5006342;28;20049;-62
2022/04/10 00:11:33;;;;;;;11.85;2.00;;;;;;;5.07;65.32;101935.56;5005820;28;20128;-63
2022/04/10 00:13:59;;;;;;;9.82;2.00;;;;;;;5.05;65.21;101934.69;5005797;28;20515;-63
2022/04/10 00:16:24;;;;;;;8.30;1.77;;;;;;;5.09;65.16;101932.97;5004649;28;20484;-63
2022/04/10 00:18:51;;;;;;;6.95;1.92;;;;;;;5.03;65.30;101926.81;5005501;28;20025;-64
2022/04/10 00:21:17;;;;;;;6.75;1.80;;;;;;;5.01;65.35;101925.97;5005649;28;20036;-63
2022/04/10 00:23:42;;;;;;;5.85;1.58;;;;;;;5.02;65.43;101925.09;5006330;28;20117;-62
2022/04/10 00:26:09;;;;;;;7.07;1.63;;;;;;;5.06;65.26;101929.47;5006291;28;20098;-62
2022/04/10 00:28:34;;;;;;;9.00;1.92;;;;;;;5.01;65.41;101930.31;5005858;28;20018;-62
2022/04/10 00:31:00;;;;;;;6.05;1.75;;;;;;;5.02;65.51;101921.59;5005809;28;20647;-64
2022/04/10 00:33:25;;;;;;;5.78;1.50;;;;;;;4.95;65.71;101925.03;5004851;28;20032;-63
2022/04/10 00:35:51;;;;;;;9.43;1.50;;;;;;;4.87;66.07;101922.34;5005166;28;20027;-64
2022/04/10 00:38:16;;;;;;;9.07;1.73;;;;;;;4.83;66.50;101921.47;5004207;28;20018;-64
2022/04/10 00:40:42;;;;;;;7.70;1.75;;;;;;;4.78;66.65;101911.00;5005971;28;20457;-63
2022/04/10 00:43:08;;;;;;;7.22;1.70;;;;;;;4.74;66.78;101916.16;5004943;28;20084;-62
2022/04/10 00:45:33;;;;;;;5.00;1.55;;;;;;;4.64;67.36;101929.16;5006723;28;20108;-64
2022/04/10 00:47:58;;;;;;;7.03;2.10;;;;;;;4.63;67.77;101923.91;5005049;28;20345;-64
2022/04/10 00:50:25;;;;;;;11.25;1.67;;;;;;;4.61;67.74;101925.66;5005189;28;20526;-64
2022/04/10 00:52:50;;;;;;;9.77;2.55;;;;;;;4.58;67.74;101921.28;5005387;28;20022;-64
2022/04/10 00:55:16;;;;;;;15.02;2.08;;;;;;;4.53;67.99;101922.97;5005561;28;20542;-63
2022/04/10 00:57:44;;;;;;;13.25;1.90;;;;;;;4.54;67.92;101922.97;5003633;28;20053;-63
2022/04/10 01:00:10;;;;;;;10.25;2.08;;;;;;;4.51;68.20;101924.69;5005509;28;20022;-64
2022/04/10 01:02:37;;;;;;;11.40;2.13;;;;;;;4.51;68.01;101920.34;5009996;28;20377;-63
2022/04/10 01:05:04;;;;;;;5.50;1.70;;;;;;;4.42;68.52;101921.13;5019465;22;20722;-64
2022/04/10 01:07:30;;;;;;;8.32;1.98;;;;;;;4.41;68.81;101927.22;5003869;28;20022;-62
2022/04/10 01:09:56;;;;;;;5.25;1.65;;;;;;;4.42;68.94;101925.47;5019100;28;20088;-64
2022/04/10 01:12:21;;;;;;;12.73;2.17;;;;;;;4.41;69.16;101924.63;5005186;28;20025;-65
2022/04/10 01:14:47;;;;;;;12.60;1.98;;;;;;;4.51;68.91;101920.34;5004831;28;20108;-64
2022/04/10 01:17:12;;;;;;;5.75;2.35;;;;;;;4.62;68.68;101923.06;5002266;28;20033;-64
2022/04/10 01:19:39;;;;;;;12.07;1.88;;;;;;;4.67;68.45;101917.88;5004655;28;20096;-65
2022/04/10 01:22:05;;;;;;;12.32;2.13;;;;;;;4.64;68.36;101921.31;5003505;28;20061;-63
2022/04/10 01:24:34;;;;;;;7.18;2.00;;;;;;;4.68;68.31;101917.00;5005032;28;20391;-62
2022/04/10 01:27:00;;;;;;;6.30;2.00;;;;;;;4.75;67.99;101928.34;5005692;28;20093;-64
2022/04/10 01:29:27;;;;;;;11.90;2.05;;;;;;;4.75;67.94;101928.34;5004186;28;20030;-64
2022/04/10 01:31:52;;;;;;;8.32;1.83;;;;;;;4.75;67.77;101931.84;5005507;28;20356;-63
2022/04/10 01:34:18;;;;;;;3.58;1.63;;;;;;;4.75;67.67;101934.47;5004188;28;20034;-64
2022/04/10 01:36:44;;;;;;;8.43;2.22;;;;;;;4.75;67.51;101931.84;5003965;28;20745;-62
2022/04/10 01:39:11;;;;;;;12.93;2.05;;;;;;;4.76;67.39;101936.19;5003690;28;20029;-62
2022/04/10 01:41:36;;;;;;;10.90;2.25;;;;;;;4.87;67.45;101932.81;5005231;28;20026;-63
2022/04/10 01:44:04;;;;;;;8.20;2.30;;;;;;;4.85;67.46;101938.00;5003719;28;20034;-63
2022/04/10 01:46:30;;;;;;;4.60;1.50;;;;;;;4.79;67.74;101936.22;5003681;28;20435;-62
2022/04/10 01:48:56;;;;;;;12.98;2.88;;;;;;;4.79;67.84;101940.59;5002675;28;20030;-63
2022/04/10 01:51:23;;;;;;;7.93;2.28;;;;;;;4.73;67.65;101946.63;5004043;28;20025;-64
2022/04/10 01:53:49;;;;;;;7.78;1.55;;;;;;;4.64;67.72;101943.94;5003171;28;20488;-65
2022/04/10 01:56:14;;;;;;;7.53;2.33;;;;;;;4.52;68.17;101945.56;5003665;28;20034;-62
2022/04/10 01:58:41;;;;;;;9.15;2.17;;;;;;;4.53;68.54;101943.84;5003279;28;20472;-62
2022/04/10 02:01:09;;;;;;;9.32;1.80;;;;;;;4.57;68.45;101945.63;5004275;28;20030;-65
2022/04/10 02:03:34;;;;;;;7.93;1.98;;;;;;;4.60;68.27;101944.78;5004345;28;20113;-62
2022/04/10 02:06:00;;;;;;;5.25;1.88;;;;;;;4.60;68.29;101950.03;5003533;28;20926;-63
2022/04/10 02:08:26;;;;;;;8.27;2.05;;;;;;;4.63;68.25;101944.78;5004768;28;20022;-62
2022/04/10 02:10:52;;;;;;;9.35;2.50;;;;;;;4.59;68.28;101953.47;5003210;28;20018;-62
2022/04/10 02:13:17;;;;;;;10.48;2.15;;;;;;;4.57;68.21;101952.59;5002255;28;20476;-63
2022/04/10 02:15:42;;;;;;;13.45;2.03;;;;;;;4.60;68.03;101956.09;4987181;28;20097;-63
2022/04/10 02:18:08;;;;;;;5.75;2.00;;;;;;;4.66;67.79;101952.66;5003958;28;20769;-63
2022/04/10 02:20:33;;;;;;;8.68;2.00;;;;;;;4.60;67.87;101958.69;5005525;28;20041;-63
2022/04/10 02:22:59;;;;;;;10.70;1.77;;;;;;;4.67;67.52;101957.88;5004179;28;20033;-64
2022/04/10 02:25:24;;;;;;;8.32;1.80;;;;;;;4.67;67.43;101954.44;5003497;28;20026;-64
2022/04/10 02:27:50;;;;;;;7.50;2.15;;;;;;;4.75;66.88;101960.56;5004058;28;20029;-64
2022/04/10 02:30:16;;;;;;;5.82;1.60;;;;;;;4.77;66.85;101960.59;5004746;28;20131;-64
2022/04/10 02:32:41;;;;;;;7.38;2.05;;;;;;;4.77;66.65;101964.09;5004730;28;20026;-64
2022/04/10 02:35:08;;;;;;;9.13;2.10;;;;;;;4.82;66.53;101952.81;5005040;28;20083;-63
2022/04/10 02:37:34;;;;;;;10.63;1.77;;;;;;;4.74;66.64;101963.16;5004442;28;20026;-63
2022/04/10 02:39:59;;;;;;;10.98;2.15;;;;;;;4.78;66.79;101952.78;5003322;28;20045;-64
2022/04/10 02:42:25;;;;;;;8.75;2.10;;;;;;;4.83;66.83;101957.16;5002347;28;20491;-64
2022/04/10 02:44:50;;;;;;;11.60;1.88;;;;;;;4.82;66.93;101961.53;5003822;28;20025;-62
2022/04/10 02:47:15;;;;;;;7.10;1.75;;;;;;;4.73;67.18;101962.28;5004132;28;20636;-62
2022/04/10 02:49:41;;;;;;;12.15;2.08;;;;;;;4.69;67.14;101960.53;5006963;28;20550;-64
2022/04/10 02:52:06;;;;;;;3.42;1.48;;;;;;;4.65;67.53;101963.97;5008857;28;20030;-61
2022/04/10 02:54:32;;;;;;;16.52;2.30;;;;;;;4.67;67.34;101955.28;5007455;28;20911;-64
2022/04/10 02:56:57;;;;;;;8.52;1.98;;;;;;;4.70;67.41;101956.19;5008483;28;20060;-63
2022/04/10 02:59:22;;;;;;;12.10;2.33;;;;;;;4.70;67.17;101956.19;5006308;28;20482;-63
2022/04/10 03:01:50;;;;;;;14.27;3.15;;;;;;;4.62;67.58;101959.59;5007740;28;20026;-64
2022/04/10 03:04:16;;;;;;;7.38;2.60;;;;;;;4.67;67.28;101957.03;5007419;28;20053;-62
2022/04/10 03:06:41;;;;;;;13.02;1.88;;;;;;;4.72;67.21;101967.53;5008141;28;20034;-64
2022/04/10 03:09:07;;;;;;;10.63;1.90;;;;;;;4.77;66.78;101966.69;5008229;28;20112;-61
2022/04/10 03:11:32;;;;;;;8.90;1.92;;;;;;;4.74;66.75;101964.06;5006196;28;20527;-64
2022/04/10 03:13:58;;;;;;;7.82;1.67;;;;;;;4.76;66.85;101967.53;5005796;28;20041;-63
2022/04/10 03:16:23;;;;;;;12.05;2.53;;;;;;;4.74;66.90;101966.66;5006349;28;20101;-61
2022/04/10 03:18:50;;;;;;;4.85;1.55;;;;;;;4.75;66.87;101971.03;5007658;28;20498;-64
2022/04/10 03:21:15;;;;;;;8.68;1.85;;;;;;;4.71;66.70;101970.97;5007572;28;20030;-64
2022/04/10 03:23:40;;;;;;;8.95;1.73;;;;;;;4.64;67.08;101972.69;5007604;28;20349;-64
2022/04/10 03:26:06;;;;;;;10.65;1.90;;;;;;;4.57;67.52;101976.09;5007952;28;20124;-63
2022/04/10 03:28:31;;;;;;;8.93;1.70;;;;;;;4.47;68.38;101981.22;5006710;28;20042;-62
2022/04/10 03:30:59;;;;;;;5.65;2.05;;;;;;;4.50;67.78;101986.47;5007435;28;20397;-64
2022/04/10 03:33:24;;;;;;;8.30;1.80;;;;;;;4.50;67.61;101986.47;5006721;28;20037;-63
2022/04/10 03:35:50;;;;;;;10.90;2.22;;;;;;;4.52;67.70;101989.09;5007620;28;20110;-64
2022/04/10 03:38:16;;;;;;;6.38;1.73;;;;;;;4.49;67.80;101994.28;5007283;28;20052;-65
2022/04/10 03:40:41;;;;;;;11.20;1.90;;;;;;;4.48;67.65;101984.72;5007643;28;20029;-64
2022/04/10 03:43:06;;;;;;;9.90;1.80;;;;;;;4.47;67.67;101991.66;5005899;28;20041;-61
2022/04/10 03:45:32;;;;;;;8.82;2.17;;;;;;;4.46;67.43;101989.91;5007001;28;20033;-64
2022/04/10 03:47:58;;;;;;;9.23;2.10;;;;;;;4.45;67.69;101995.97;5006663;28;20022;-64
2022/04/10 03:50:23;;;;;;;6.70;1.85;;;;;;;4.39;67.73;101993.28;5006823;28;20092;-65
2022/04/10 03:52:49;;;;;;;6.35;2.08;;;;;;;4.34;67.90;101989.78;5007253;28;20030;-64
2022/04/10 03:55:14;;;;;;;7.07;2.35;;;;;;;4.36;68.05;101990.69;5006700;28;20022;-64
2022/04/10 03:57:40;;;;;;;5.63;1.83;;;;;;;4.38;67.90;101988.94;5005182;28;20113;-64
2022/04/10 04:00:06;;;;;;;10.80;2.50;;;;;;;4.35;67.96;101991.50;5006145;28;20149;-64
2022/04/10 04:02:31;;;;;;;6.03;1.73;;;;;;;4.21;68.49;101997.47;5005904;28;20033;-64
2022/04/10 04:04:57;;;;;;;12.02;2.33;;;;;;;4.13;68.87;102002.56;5004879;28;20050;-64
2022/04/10 04:07:22;;;;;;;5.85;2.10;;;;;;;4.06;69.76;102005.13;5005457;28;20045;-64
2022/04/10 04:09:47;;;;;;;4.40;2.08;;;;;;;3.91;69.88;102002.31;5005997;28;20107;-64
2022/04/10 04:12:13;;;;;;;12.15;1.85;;;;;;;3.90;70.00;101999.69;5006099;28;20026;-63
2022/04/10 04:14:38;;;;;;;8.77;1.80;;;;;;;3.86;70.36;102006.63;5006656;28;20028;-63
2022/04/10 04:17:04;;;;;;;9.27;2.47;;;;;;;3.83;70.27;102003.09;5004989;28;20648;-65
2022/04/10 04:19:29;;;;;;;11.60;2.00;;;;;;;3.79;70.44;102007.38;5012385;28;20112;-64
2022/04/10 04:21:54;;;;;;;10.02;2.08;;;;;;;3.82;70.32;102004.81;5006686;28;20632;-62
2022/04/10 04:24:20;;;;;;;16.35;1.65;;;;;;;3.80;70.47;102003.94;5005891;28;20088;-63
2022/04/10 04:26:45;;;;;;;8.02;2.13;;;;;;;3.85;70.36;102006.59;5006030;28;20464;-65
2022/04/10 04:29:10;;;;;;;5.40;1.65;;;;;;;3.90;69.90;102010.13;5005073;28;20171;-63
2022/04/10 04:31:36;;;;;;;6.43;1.88;;;;;;;3.94;69.93;102014.53;5006613;28;20026;-64
2022/04/10 04:34:01;;;;;;;10.48;2.10;;;;;;;3.94;70.06;102005.84;5005834;28;20029;-64
2022/04/10 04:36:26;;;;;;;10.55;2.28;;;;;;;3.99;69.92;102005.03;5005733;28;20051;-64
2022/04/10 04:38:53;;;;;;;6.88;2.47;;;;;;;3.98;69.81;102018.94;5005974;28;20029;-62
2022/04/10 04:41:18;;;;;;;4.60;1.80;;;;;;;3.97;69.55;102017.16;5005300;28;20036;-64
2022/04/10 04:43:44;;;;;;;5.90;1.65;;;;;;;4.01;69.57;102021.56;5003935;28;20109;-64
2022/04/10 04:46:09;;;;;;;7.20;2.38;;;;;;;4.01;69.73;102029.38;5005553;28;20060;-63
2022/04/10 04:48:34;;;;;;;3.40;1.70;;;;;;;3.94;69.93;102026.72;5005650;28;20054;-61
2022/04/10 04:51:01;;;;;;;7.75;3.00;;;;;;;3.93;70.07;102028.44;5004597;28;20025;-62
2022/04/10 04:53:26;;;;;;;7.93;2.67;;;;;;;3.75;70.98;102036.88;5005384;28;20061;-62
2022/04/10 04:55:52;;;;;;;4.55;2.25;;;;;;;3.70;70.79;102039.41;5005406;28;20030;-64
2022/04/10 04:58:17;;;;;;;5.38;2.25;;;;;;;3.74;71.20;102035.13;5004872;28;20448;-64
2022/04/10 05:00:42;;;;;;;12.35;2.30;;;;;;;3.74;71.10;102037.72;5003878;28;20056;-66
2022/04/10 05:03:08;;;;;;;11.70;3.13;;;;;;;3.81;70.73;102034.34;5005062;28;20476;-62
2022/04/10 05:05:33;;;;;;;9.48;2.10;;;;;;;3.85;70.63;102037.91;5005963;28;20055;-63
2022/04/10 05:07:58;;;;;;;5.47;1.88;;;;;;;3.95;70.29;102041.50;5005814;28;20030;-63
2022/04/10 05:10:24;;;;;;;6.15;2.10;;;;;;;3.92;70.34;102039.72;5004823;28;20099;-64
2022/04/10 05:12:49;;;;;;;8.55;2.03;;;;;;;4.00;70.16;102047.66;5005028;28;20171;-65
2022/04/10 05:15:14;;;;;;;7.15;1.55;;;;;;;4.07;70.03;102046.88;4987504;28;20061;-64
2022/04/10 05:17:40;;;;;;;7.22;2.20;;;;;;;4.11;69.94;102045.16;5004720;28;20041;-65
2022/04/10 05:20:06;;;;;;;5.97;2.22;;;;;;;4.15;69.85;102052.16;5012884;28;20095;-64
2022/04/10 05:22:32;;;;;;;7.53;2.22;;;;;;;4.16;69.81;102057.41;5006103;28;20462;-64
2022/04/10 05:24:57;;;;;;;8.68;2.17;;;;;;;4.11;70.13;102058.22;5005518;28;20018;-63
2022/04/10 05:27:22;;;;;;;11.85;2.22;;;;;;;4.11;70.28;102066.03;5003476;28;20767;-63
2022/04/10 05:29:48;;;;;;;9.63;2.25;;;;;;;4.14;70.04;102060.84;5005348;28;20084;-64
2022/04/10 05:32:13;;;;;;;5.03;1.98;;;;;;;4.17;70.24;102058.28;5004769;28;20062;-65
2022/04/10 05:34:39;;;;;;;6.82;2.15;;;;;;;4.20;70.11;102066.16;5001809;28;20472;-64
2022/04/10 05:37:04;;;;;;;7.18;2.47;;;;;;;4.28;70.15;102069.72;5004586;28;20072;-63
2022/04/10 05:39:29;;;;;;;4.22;1.85;;;;;;;4.34;70.13;102066.34;5009021;28;20472;-65
2022/04/10 05:41:55;;;;;;;7.85;2.30;;;;;;;4.50;69.65;102070.00;5004401;28;20540;-63
2022/04/10 05:44:20;;;;;;;11.20;2.70;;;;;;;4.55;69.54;102068.28;5004324;28;20025;-63
2022/04/10 05:46:45;;;;;;;5.60;1.80;;;;;;;4.66;69.28;102073.66;5004959;28;20044;-63
2022/04/10 05:49:11;;;;;;;11.73;2.28;;;;;;;4.78;68.95;102074.63;5005361;28;20057;-65
2022/04/10 05:51:37;;;;;;;5.22;1.80;;;;;;;4.86;68.52;102082.53;5005424;28;20044;-60
2022/04/10 05:54:02;;;;;;;11.40;2.17;;;;;;;4.93;68.32;102082.63;5004933;28;20563;-64
2022/04/10 05:56:28;;;;;;;6.45;2.22;;;;;;;5.01;68.21;102087.94;5003696;28;20034;-64
2022/04/10 05:58:53;;;;;;;8.48;2.33;;;;;;;5.06;67.88;102095.81;5004598;28;20033;-65
2022/04/10 06:01:18;;;;;;;7.78;2.25;;;;;;;5.09;67.94;102100.19;5004100;28;20031;-64
2022/04/10 06:03:44;;;;;;;9.70;3.13;;;;;;;5.22;67.34;102104.66;5005013;28;20495;-64
2022/04/10 06:06:09;;;;;;;7.28;2.10;;;;;;;5.28;67.10;102098.59;5004439;28;20046;-64
2022/04/10 06:08:34;;;;;;;7.20;2.40;;;;;;;5.30;67.19;102110.81;5004967;28;20030;-63
2022/04/10 06:11:00;;;;;;;8.00;2.25;;;;;;;5.31;67.10;102112.59;5004953;28;20453;-65
2022/04/10 06:13:25;;;;;;;4.32;2.15;;;;;;;5.41;67.13;102115.25;5003966;28;20473;-64
2022/04/10 06:15:51;;;;;;;14.82;2.75;;;;;;;5.48;66.67;102111.84;5004123;28;20126;-64
2022/04/10 06:18:16;;;;;;;8.15;2.10;;;;;;;5.50;66.89;102117.06;5004880;28;20145;-65
2022/04/10 06:20:41;;;;;;;7.65;1.98;;;;;;;5.59;66.65;102121.50;5003806;28;20029;-64
2022/04/10 06:23:07;;;;;;;11.35;2.40;;;;;;;5.64;66.56;102125.94;5007071;28;20034;-65
2022/04/10 06:25:32;;;;;;;5.93;2.10;;;;;;;5.74;66.41;102132.09;5007209;28;20033;-63
2022/04/10 06:27:58;;;;;;;8.65;2.50;;;;;;;5.92;65.75;102133.06;5007067;28;20029;-62
2022/04/10 06:30:23;;;;;;;12.35;2.58;;;;;;;5.98;65.45;102129.63;5007350;28;20022;-65
2022/04/10 06:32:48;;;;;;;7.50;2.22;;;;;;;6.04;65.28;102130.56;5008162;28;20025;-63
2022/04/10 06:35:14;;;;;;;8.07;1.83;;;;;;;6.15;65.18;102135.88;5008295;28;20018;-64
2022/04/10 06:37:39;;;;;;;6.97;2.80;;;;;;;6.16;65.01;102148.09;5007921;28;20083;-66
2022/04/10 06:40:06;;;;;;;9.13;2.70;;;;;;;6.18;65.22;102155.94;5008000;28;20103;-65
2022/04/10 06:42:32;;;;;;;5.35;2.55;;;;;;;6.16;65.18;102157.66;5007243;28;20399;-63
2022/04/10 06:44:57;;;;;;;9.55;2.33;;;;;;;6.24;64.93;102161.22;5007322;28;20030;-63
2022/04/10 06:47:22;;;;;;;17.13;2.97;;;;;;;6.31;64.60;102162.13;5006073;28;20029;-68
2022/04/10 06:49:47;;;;;;;8.05;2.40;;;;;;;6.13;65.70;102168.13;5006064;28;20022;-68
2022/04/10 06:52:13;;;;;;;8.40;2.30;;;;;;;5.97;66.54;102170.63;5006864;28;20022;-68
2022/04/10 06:54:38;;;;;;;7.90;2.58;;;;;;;6.08;66.74;102162.84;5007127;28;20014;-70
2022/04/10 06:57:03;;;;;;;3.38;1.60;;;;;;;6.10;67.61;102160.25;5007220;28;20462;-67
2022/04/10 06:59:29;;;;;;;6.18;2.15;;;;;;;5.96;69.37;102166.22;5005351;28;20022;-69
2022/04/10 07:01:54;;;;;;;8.65;2.03;;;;;;;6.15;69.29;102169.00;5007278;28;20080;-70
2022/04/10 07:04:19;;;;;;;10.35;2.00;;;;;;;6.32;69.08;102166.47;5006704;28;20045;-67
2022/04/10 07:06:46;;;;;;;6.65;1.85;;;;;;;6.56;68.38;102170.97;5007423;28;20030;-69
2022/04/10 07:09:15;;;;;;;10.50;2.42;;;;;;;6.52;68.77;102171.84;5005680;28;20022;-62
2022/04/10 07:11:40;;;;;;;5.20;1.73;;;;;;;6.61;68.96;102176.22;5006331;28;20554;-63
2022/04/10 07:14:06;;;;;;;2.40;1.35;;;;;;;6.78;68.58;102171.06;5007188;28;20030;-66
2022/04/10 07:16:31;;;;;;;16.30;2.05;;;;;;;6.86;67.80;102178.09;5005358;28;20420;-66
2022/04/10 07:18:57;;;;;;;4.15;1.35;;;;;;;6.98;67.36;102180.72;5006737;28;20018;-65
2022/04/10 07:23:41;;;;;;;8.07;2.13;;;;;;;7.35;66.26;102184.31;5007023;28;20068;-65
2022/04/10 07:24:08;;;;;;;4.72;1.50;;;;;;;7.29;66.16;102188.66;5006093;28;20444;-64
2022/04/10 07:26:33;;;;;;;15.77;2.72;;;;;;;7.33;65.79;102189.53;5004410;28;20103;-66
2022/04/10 07:28:59;;;;;;;4.43;1.10;;;;;;;7.42;65.69;102188.69;5006011;28;20041;-63
2022/04/10 07:31:24;;;;;;;9.65;1.83;;;;;;;7.68;64.60;102195.69;5006984;28;20030;-68
2022/04/10 07:33:49;;;;;;;9.18;1.92;;;;;;;7.51;65.09;102193.94;5005339;28;20488;-66
2022/04/10 07:36:15;;;;;;;6.40;1.73;;;;;;;7.59;64.87;102191.31;5005680;28;20430;-67
2022/04/10 07:38:40;;;;;;;8.15;1.60;;;;;;;7.56;64.95;102197.41;5004690;28;20384;-68
2022/04/10 07:41:05;;;;;;;7.05;1.50;;;;;;;7.56;64.99;102200.03;5007277;28;20034;-70
2022/04/10 07:43:31;;;;;;;4.03;1.40;;;;;;;7.64;65.34;102204.41;5005573;28;20030;-65
2022/04/10 07:48:42;;;;;;;5.10;1.55;;;;;;;7.96;64.71;102211.44;5007219;28;20040;-67
2022/04/10 07:51:07;;;;;;;4.75;1.50;;;;;;;8.11;64.44;102212.28;5006654;28;20352;-66
2022/04/10 07:53:33;;;;;;;6.05;1.85;;;;;;;8.14;64.15;102209.66;5006157;28;20036;-64
2022/04/10 07:55:58;;;;;;;6.03;1.50;;;;;;;8.30;63.87;102216.63;5006721;28;20112;-64
2022/04/10 07:58:24;;;;;;;5.75;1.40;;;;;;;8.19;64.18;102214.00;5005866;28;20017;-69
2022/04/10 08:00:49;;;;;;;4.93;1.30;;;;;;;8.29;64.02;102214.88;5006333;28;20504;-61
2022/04/10 08:03:14;;;;;;;11.77;2.58;;;;;;;8.31;63.55;102220.13;5006409;28;20113;-63
2022/04/10 08:05:40;;;;;;;5.22;1.50;;;;;;;8.40;63.46;102222.72;5006131;28;20038;-60
2022/04/10 08:08:05;;;;;;;4.72;1.20;;;;;;;8.46;63.87;102216.59;5006174;28;20064;-62
2022/04/10 08:10:30;;;;;;;10.98;1.67;;;;;;;8.52;64.11;102221.81;4997951;28;20025;-64
2022/04/10 08:12:58;;;;;;;9.30;1.70;;;;;;;8.55;64.19;102227.09;4996479;28;20476;-63
2022/04/10 08:15:23;;;;;;;6.85;1.40;;;;;;;8.77;62.70;102211.25;4995476;28;20022;-64
2022/04/10 08:17:49;;;;;;;6.60;1.80;;;;;;;8.95;62.90;102214.69;5002962;28;20025;-64
2022/04/10 08:20:16;;;;;;;9.40;1.77;;;;;;;8.99;63.95;102232.19;4998029;28;20030;-64
2022/04/10 08:22:41;;;;;;;5.78;1.70;;;;;;;9.19;62.24;102228.59;4997361;28;20068;-65
2022/04/10 08:25:09;;;;;;;10.40;1.70;;;;;;;9.30;61.31;102228.53;4995309;28;20066;-63
2022/04/10 08:27:36;;;;;;;8.95;1.77;;;;;;;9.43;60.31;102229.31;4995150;28;20129;-63
2022/04/10 08:30:08;;;;;;;8.00;1.75;;;;;;;9.61;59.61;102229.16;4996329;28;20389;-64
2022/04/10 08:32:37;;;;;;;8.25;1.95;;;;;;;9.70;59.41;102237.91;4996731;28;20026;-65
2022/04/10 08:35:03;;;;;;;9.38;1.70;;;;;;;9.58;58.83;102236.22;4997609;28;20030;-64
2022/04/10 08:37:28;;;;;;;6.00;2.20;;;;;;;9.70;57.92;102244.00;4992160;28;20057;-67
2022/04/10 08:39:56;;;;;;;7.82;1.48;;;;;;;9.77;58.94;102244.84;4996095;28;20113;-69
2022/04/10 08:42:22;;;;;;;7.28;1.77;;;;;;;9.82;60.16;102244.81;4999020;28;20027;-70
2022/04/10 08:44:47;;;;;;;6.30;1.38;;;;;;;9.73;57.35;102243.13;4994833;28;20491;-63
2022/04/10 08:47:15;;;;;;;5.20;1.58;;;;;;;9.83;57.05;102244.81;5005150;28;20384;-61
2022/04/10 08:49:41;;;;;;;7.97;1.75;;;;;;;9.90;58.40;102247.41;5004847;28;20380;-61
2022/04/10 08:52:07;;;;;;;4.57;1.65;;;;;;;10.04;57.83;102245.50;5006373;28;20052;-62
2022/04/10 08:54:33;;;;;;;5.88;1.67;;;;;;;10.20;54.16;102245.34;5004995;28;20380;-63
2022/04/10 08:56:59;;;;;;;8.65;1.80;;;;;;;10.49;52.66;102238.94;5005778;28;20017;-61
2022/04/10 08:59:25;;;;;;;7.15;1.15;;;;;;;10.64;53.38;102234.38;5004179;28;20065;-61
2022/04/10 09:01:54;;;;;;;4.85;1.33;;;;;;;10.75;52.41;102237.78;5005799;28;20085;-62
2022/04/10 09:04:20;;;;;;;5.55;1.40;;;;;;;10.69;52.57;102245.75;5005498;28;20493;-62
2022/04/10 09:07:04;;;;;;;7.93;1.55;;;;;;;10.60;50.14;102244.09;5006364;28;20030;-60
2022/04/10 09:09:30;;;;;;;5.35;1.02;;;;;;;10.27;48.81;102241.78;5005850;28;20040;-64
2022/04/10 09:11:56;;;;;;;4.70;1.25;;;;;;;10.21;48.60;102250.59;4992191;28;20435;-68
2022/04/10 09:14:27;;;;;;;5.13;1.52;;;;;;;9.97;48.63;102249.09;4999977;28;20544;-70
2022/04/10 09:17:13;;;;;;;5.18;2.20;;;;;;;9.99;49.87;102240.28;4977899;28;20042;-71
2022/04/10 09:19:40;;;;;;;14.05;2.30;;;;;;;10.00;50.31;102243.78;4994633;28;20096;-63
2022/04/10 09:22:37;;;;;;;5.70;1.35;;;;;;;10.40;49.31;102236.38;4997978;28;20061;-66
2022/04/10 09:25:11;;;;;;;13.95;1.58;;;;;;;10.58;47.81;102236.22;4996501;28;20030;-68
2022/04/10 09:27:41;;;;;;;6.00;2.05;;;;;;;10.71;48.04;102231.66;4995343;28;20046;-67
2022/04/10 09:30:11;;;;;;;4.00;1.20;;;;;;;10.70;47.31;102244.88;4996142;28;20052;-66
2022/04/10 09:32:47;;;;;;;6.25;1.33;;;;;;;10.66;46.73;102251.06;4994115;28;20116;-64
2022/04/10 09:35:15;;;;;;;5.80;1.30;;;;;;;10.66;47.80;102243.16;4993652;28;20019;-61
2022/04/10 09:37:50;;;;;;;3.67;1.17;;;;;;;10.64;48.98;102251.09;4994689;28;20022;-61
2022/04/10 09:40:29;;;;;;;2.88;1.27;;;;;;;10.75;47.60;102258.88;4997146;28;20028;-62
2022/04/10 09:43:04;;;;;;;6.38;1.45;;;;;;;10.77;47.20;102258.88;4998759;28;20026;-62
2022/04/10 09:45:30;;;;;;;4.78;1.67;;;;;;;10.97;46.93;102246.31;4992165;28;20058;-63
2022/04/10 09:47:56;;;;;;;11.30;1.83;;;;;;;11.26;47.21;102257.34;4990035;28;20041;-62
2022/04/10 09:50:30;;;;;;;6.18;1.40;;;;;;;11.46;46.34;102257.06;4990105;28;20022;-63
2022/04/10 09:52:55;;;;;;;3.78;1.10;;;;;;;11.48;45.23;102251.75;4986458;28;20539;-71
2022/04/10 09:55:38;;;;;;;6.53;1.45;;;;;;;11.48;45.28;102249.13;4987396;28;20026;-74
2022/04/10 09:58:22;;;;;;;4.63;1.70;;;;;;;11.49;45.80;102256.13;4995393;28;20018;-78
2022/04/10 10:00:49;;;;;;;3.88;1.33;;;;;;;11.40;46.10;102262.41;4995536;28;20109;-75
2022/04/10 10:03:15;;;;;;;4.30;1.23;;;;;;;11.12;45.62;102263.69;4993646;28;20037;-75
2022/04/10 10:05:41;;;;;;;8.23;1.27;;;;;;;11.27;44.14;102264.38;4994381;28;20496;-60
2022/04/10 10:08:07;;;;;;;4.03;1.38;;;;;;;11.34;43.72;102258.09;4996182;28;20041;-63
2022/04/10 10:10:35;;;;;;;5.07;1.40;;;;;;;11.37;43.72;102251.91;4994251;28;20113;-68
2022/04/10 10:13:02;;;;;;;4.10;1.33;;;;;;;11.56;44.29;102249.00;4992856;28;20559;-67
2022/04/10 10:15:28;;;;;;;6.00;1.50;;;;;;;11.40;44.96;102250.97;4993303;28;20435;-67
2022/04/10 10:17:54;;;;;;;6.78;1.90;;;;;;;11.63;44.75;102248.00;5003073;28;20166;-64
2022/04/10 10:20:23;;;;;;;4.65;1.30;;;;;;;11.97;44.81;102251.84;5005185;28;20026;-64
2022/04/10 10:22:48;;;;;;;5.32;1.42;;;;;;;11.85;44.47;102247.66;5004348;28;20034;-65
2022/04/10 10:25:24;;;;;;;5.38;1.40;;;;;;;11.50;45.95;102256.09;5004919;28;20024;-64
2022/04/10 10:28:08;;;;;;;1.35;0.80;;;;;;;11.81;44.71;102257.41;5000835;28;20028;-65
2022/04/10 10:31:15;;;;;;;5.85;1.58;;;;;;;12.03;43.85;102251.75;5005338;28;20052;-66
2022/04/10 10:33:55;;;;;;;5.53;1.13;;;;;;;12.15;43.40;102255.09;4976971;28;20164;-65
2022/04/10 10:36:24;;;;;;;;;;;;;;;11.75;43.69;102262.78;5001682;28;20037;-63
2022/04/10 10:38:52;;;;;;;6.85;1.20;;;;;;;11.80;42.46;102260.91;5003684;28;19971;-66
2022/04/10 10:41:17;;;;;;;2.92;1.35;;;;;;;11.67;42.45;102259.38;4999954;28;20076;-64
2022/04/10 10:43:43;;;;;;;3.65;1.67;;;;;;;11.84;41.41;102254.72;4994998;28;20031;-65
2022/04/10 10:46:34;;;;;;;9.80;1.10;;;;;;;12.08;41.59;102254.34;4992692;28;20052;-64
2022/04/10 10:49:11;;;;;;;5.70;1.10;;;;;;;12.58;39.78;102256.94;4985417;28;20030;-62
2022/04/10 10:51:39;;;;;;;2.15;0.80;;;;;;;12.67;39.03;102250.59;4985521;28;20142;-62
2022/04/10 10:54:10;;;;;;;4.82;1.13;;;;;;;12.84;40.02;102258.19;4994604;28;20477;-63
2022/04/10 10:56:43;;;;;;;4.35;1.25;;;;;;;12.97;39.18;102261.44;5001439;28;20034;-63
2022/04/10 10:59:25;;;;;;;4.43;1.25;;;;;;;13.32;38.64;102264.25;4994329;28;20046;-63
2022/04/10 11:02:02;;;;;;;2.72;0.93;;;;;;;13.33;38.03;102257.19;5004407;28;20022;-63
2022/04/10 11:04:32;;;;;;;4.50;1.02;;;;;;;13.14;39.58;102249.63;5004349;28;20085;-64
2022/04/10 11:07:19;;;;;;;4.57;1.25;;;;;;;12.98;39.82;102254.41;4986829;28;20038;-63
2022/04/10 11:10:06;;;;;;;6.07;1.30;;;;;;;12.80;40.85;102248.59;5008036;28;20440;-62
2022/04/10 11:12:33;;;;;;;5.78;1.25;;;;;;;12.92;42.09;102236.00;5007898;28;20022;-63
2022/04/10 11:15:03;;;;;;;6.90;1.17;;;;;;;12.76;40.68;102242.47;5007388;28;20026;-62
2022/04/10 11:17:32;;;;;;;5.35;1.75;;;;;;;12.62;39.72;102233.97;5007581;28;20030;-62
2022/04/10 11:20:00;;;;;;;5.82;1.63;;;;;;;12.49;41.49;102238.59;5006342;28;20095;-64
2022/04/10 11:22:33;;;;;;;4.82;1.67;;;;;;;12.30;42.77;102238.97;5007794;28;20053;-64
2022/04/10 11:25:00;;;;;;;6.32;1.40;;;;;;;13.03;39.79;102233.97;5007885;28;20022;-63
2022/04/10 11:27:47;;;;;;;5.07;1.38;;;;;;;13.29;36.72;102224.59;5006600;28;20413;-64
2022/04/10 11:30:24;;;;;;;4.03;1.10;;;;;;;13.43;36.45;102221.63;5005428;28;20812;-63
2022/04/10 11:32:53;;;;;;;4.85;0.98;;;;;;;13.67;35.85;102229.94;5007474;28;20107;-63